Time;durP1;ratioP1;P1;durP2;ratioP2;P2;SDS_P1;SDS_P2;PMS_P1;PMS_P2;Temp;Humidity;BMP_temperature;BMP_pressure;BME280_temperature;BME280_humidity;BME280_pressure;Samples;Min_cycle;Max_cycle;Signal;HPM_P1;HPM_P2
2022/11/30 00:04:13;;;;;;;25.73;13.43;;;;;;;5.08;60.79;100438.28;7764788;32;39980;-86
2022/11/30 00:08:29;;;;;;;31.60;15.05;;;;;;;5.03;61.29;100435.41;7762351;32;38671;-85
2022/11/30 00:12:45;;;;;;;28.45;14.00;;;;;;;5.39;59.55;100441.97;7762346;32;37255;-85
2022/11/30 00:17:01;;;;;;;24.65;13.75;;;;;;;5.39;59.96;100444.69;7741158;32;39323;-85
2022/11/30 00:21:18;;;;;;;26.83;14.07;;;;;;;5.36;59.97;100442.41;7762085;32;38789;-86
2022/11/30 00:25:36;;;;;;;28.10;13.80;;;;;;;5.47;59.25;100455.22;7752223;32;37348;-85
2022/11/30 00:29:52;;;;;;;23.50;12.48;;;;;;;5.44;59.41;100448.38;7765807;32;37830;-85
2022/11/30 00:34:08;;;;;;;24.35;13.30;;;;;;;5.67;58.95;100440.69;7752642;32;39240;-85
2022/11/30 00:38:24;;;;;;;22.75;12.57;;;;;;;5.62;58.93;100444.91;7766286;32;39779;-86
2022/11/30 00:42:41;;;;;;;24.95;13.88;;;;;;;5.36;59.63;100439.72;7712068;32;38047;-86
2022/11/30 00:46:57;;;;;;;22.83;12.88;;;;;;;5.38;59.70;100451.97;7710800;32;37231;-85
2022/11/30 00:51:13;;;;;;;23.38;12.43;;;;;;;5.34;60.04;100452.62;7712001;32;39323;-86
2022/11/30 00:55:32;;;;;;;22.58;12.45;;;;;;;5.39;59.45;100450.09;7712057;32;39973;-86
2022/11/30 00:59:48;;;;;;;22.35;12.30;;;;;;;5.24;59.51;100440.44;7712158;32;37355;-86
2022/11/30 01:04:04;;;;;;;23.62;12.85;;;;;;;4.98;60.08;100448.75;7711974;32;37949;-86
2022/11/30 01:08:20;;;;;;;24.30;11.95;;;;;;;5.21;59.69;100440.87;7711845;32;39862;-85
2022/11/30 01:12:36;;;;;;;21.87;11.00;;;;;;;5.43;59.50;100440.47;7711675;32;39959;-85
2022/11/30 01:16:53;;;;;;;23.60;11.90;;;;;;;5.34;59.40;100441.81;7711411;32;38039;-85
2022/11/30 01:21:14;;;;;;;23.17;11.52;;;;;;;5.32;59.20;100443.91;7712013;32;36801;-85
2022/11/30 01:25:30;;;;;;;28.05;11.98;;;;;;;5.19;59.62;100443.00;7712090;32;39239;-85
2022/11/30 01:29:46;;;;;;;21.62;11.25;;;;;;;5.21;59.47;100449.00;7710964;32;40502;-85
2022/11/30 01:34:02;;;;;;;23.70;11.12;;;;;;;5.40;58.64;100447.19;7710689;32;37619;-85
2022/11/30 01:38:19;;;;;;;18.00;11.15;;;;;;;5.30;58.69;100444.13;7711338;32;37865;-85
2022/11/30 01:42:36;;;;;;;22.58;11.68;;;;;;;5.26;59.00;100457.28;7764542;32;40142;-85
2022/11/30 01:47:06;;;;;;;22.45;10.23;;;;;;;5.25;59.02;100457.50;7764761;32;39904;-86
2022/11/30 01:51:22;;;;;;;20.67;10.73;;;;;;;5.48;58.21;100454.16;7764914;32;38055;-85
2022/11/30 01:55:45;;;;;;;21.67;11.02;;;;;;;5.29;58.34;100455.16;7751556;32;36825;-86
2022/11/30 02:00:05;;;;;;;18.20;10.03;;;;;;;5.49;57.80;100445.00;7751754;32;40380;-85
2022/11/30 02:04:39;;;;;;;18.87;8.88;;;;;;;5.51;58.02;100440.19;7751264;32;40832;-86
2022/11/30 02:08:55;;;;;;;18.17;10.43;;;;;;;5.47;57.84;100447.13;7764967;32;37907;-85
2022/11/30 02:13:35;;;;;;;17.77;9.10;;;;;;;5.42;57.48;100444.25;7764680;32;37134;-86
2022/11/30 02:18:08;;;;;;;17.70;9.85;;;;;;;5.33;57.02;100443.69;7752426;32;39324;-86
2022/11/30 02:22:54;;;;;;;19.23;9.68;;;;;;;5.81;55.88;100434.91;7752136;32;40879;-86
2022/11/30 02:27:36;;;;;;;18.00;10.02;;;;;;;5.61;56.73;100427.00;7753667;32;38411;-86
2022/11/30 02:32:13;;;;;;;19.48;9.57;;;;;;;5.70;57.11;100418.59;7752691;32;37264;-85
2022/11/30 02:36:30;;;;;;;15.30;8.00;;;;;;;5.90;56.49;100418.34;7764637;32;39216;-86
2022/11/30 02:40:47;;;;;;;14.98;8.30;;;;;;;5.86;54.26;100415.28;7764543;32;39624;-86
2022/11/30 02:45:06;;;;;;;18.15;8.23;;;;;;;5.78;53.44;100418.31;7764587;32;36072;-86
2022/11/30 02:50:01;;;;;;;14.70;8.02;;;;;;;6.03;52.61;100417.44;7751055;32;37037;-86
2022/11/30 02:54:17;;;;;;;14.27;7.80;;;;;;;5.36;54.57;100421.59;7752526;32;39313;-85
2022/11/30 02:58:34;;;;;;;16.05;8.00;;;;;;;5.19;55.71;100417.81;7751131;32;39200;-86
2022/11/30 03:02:50;;;;;;;15.60;8.05;;;;;;;5.45;55.11;100416.78;7764202;32;37533;-85
2022/11/30 03:07:07;;;;;;;19.27;8.95;;;;;;;5.45;54.98;100411.38;7764116;32;37051;-86
2022/11/30 03:11:24;;;;;;;17.12;8.60;;;;;;;5.29;55.30;100417.31;7764144;32;40223;-86
2022/11/30 03:15:40;;;;;;;13.70;7.97;;;;;;;5.34;55.15;100420.19;7764253;32;39604;-87
2022/11/30 03:19:57;;;;;;;17.62;9.27;;;;;;;5.42;55.01;100422.63;7764174;32;38812;-86
2022/11/30 03:24:13;;;;;;;15.82;7.97;;;;;;;5.36;56.24;100418.09;7764197;32;35555;-85
2022/11/30 03:28:29;;;;;;;14.63;7.90;;;;;;;5.14;55.87;100410.37;7764449;32;39332;-85
2022/11/30 03:32:46;;;;;;;14.13;7.82;;;;;;;5.36;55.37;100415.38;7763642;32;39980;-85
2022/11/30 03:37:02;;;;;;;15.30;7.20;;;;;;;5.46;55.53;100418.41;7763671;32;38508;-85
2022/11/30 03:41:19;;;;;;;12.45;7.40;;;;;;;5.47;54.71;100428.19;7764130;32;37747;-84
2022/11/30 03:45:35;;;;;;;15.00;7.45;;;;;;;5.30;55.86;100432.50;7763821;32;39366;-86
2022/11/30 03:49:51;;;;;;;14.32;7.43;;;;;;;5.23;55.63;100430.66;7763254;32;40763;-85
2022/11/30 03:54:07;;;;;;;13.15;7.80;;;;;;;5.53;54.83;100426.47;7763667;32;35563;-85
2022/11/30 03:58:24;;;;;;;14.48;7.43;;;;;;;5.59;54.47;100418.28;7763923;32;37862;-85
2022/11/30 04:02:40;;;;;;;13.68;7.32;;;;;;;5.48;54.47;100413.59;7766191;32;40047;-86
2022/11/30 04:07:00;;;;;;;11.48;6.87;;;;;;;5.62;52.82;100407.03;7766437;32;40765;-85
2022/11/30 04:11:16;;;;;;;13.23;6.57;;;;;;;6.10;51.25;100407.34;7765995;32;38688;-86
2022/11/30 04:15:32;;;;;;;14.30;7.03;;;;;;;6.10;51.16;100415.47;7752839;32;36815;-86
2022/11/30 04:19:48;;;;;;;15.63;7.00;;;;;;;5.76;51.60;100417.69;7766402;32;39956;-86
2022/11/30 04:24:05;;;;;;;15.15;6.93;;;;;;;5.82;51.91;100430.31;7766293;32;39947;-85
2022/11/30 04:28:21;;;;;;;15.23;6.85;;;;;;;5.95;51.26;100418.50;7766038;32;37852;-86
2022/11/30 04:32:37;;;;;;;13.57;6.50;;;;;;;6.11;49.75;100417.13;7766068;32;37070;-86
2022/11/30 04:36:54;;;;;;;13.23;6.35;;;;;;;5.72;51.05;100419.19;7766013;32;40162;-85
2022/11/30 04:41:15;;;;;;;13.55;6.62;;;;;;;6.00;50.67;100416.84;7759256;32;40316;-85
2022/11/30 04:45:31;;;;;;;12.13;6.12;;;;;;;5.92;50.23;100427.09;7766318;32;38600;-85
2022/11/30 04:49:50;;;;;;;13.13;7.20;;;;;;;5.97;50.19;100430.81;7765919;32;36821;-85
2022/11/30 04:54:06;;;;;;;13.65;6.50;;;;;;;5.74;50.80;100434.13;7766125;32;39844;-85
2022/11/30 04:58:23;;;;;;;13.68;6.75;;;;;;;5.30;52.76;100429.81;7765752;32;40766;-85
2022/11/30 05:02:39;;;;;;;10.45;5.65;;;;;;;5.57;52.45;100428.50;7765661;32;38696;-85
2022/11/30 05:06:55;;;;;;;11.97;6.47;;;;;;;5.97;50.19;100430.00;7765835;32;37950;-85
2022/11/30 05:11:11;;;;;;;12.52;6.37;;;;;;;5.98;50.14;100435.16;7765698;32;40032;-85
2022/11/30 05:15:28;;;;;;;11.07;6.37;;;;;;;6.11;49.70;100431.50;7765815;32;40739;-85
2022/11/30 05:19:44;;;;;;;13.93;6.93;;;;;;;6.04;49.65;100432.59;7765444;32;37796;-85
2022/11/30 05:24:00;;;;;;;10.43;5.65;;;;;;;5.91;50.38;100447.09;7765779;32;36837;-85
2022/11/30 05:28:16;;;;;;;11.60;6.10;;;;;;;5.80;51.26;100445.97;7765836;32;37690;-86
2022/11/30 05:32:33;;;;;;;12.35;6.40;;;;;;;5.58;52.06;100440.16;7765177;32;40019;-85
2022/11/30 05:36:49;;;;;;;11.75;5.90;;;;;;;6.03;50.46;100433.66;7765312;32;37959;-85
2022/11/30 05:41:05;;;;;;;10.43;6.15;;;;;;;6.14;48.99;100428.34;7764993;32;37246;-85
2022/11/30 05:45:21;;;;;;;12.80;5.78;;;;;;;5.95;48.99;100432.03;7765488;32;40053;-85
2022/11/30 05:49:38;;;;;;;11.73;6.05;;;;;;;6.00;48.99;100434.94;7764995;32;40805;-85
2022/11/30 05:53:54;;;;;;;12.77;6.40;;;;;;;5.95;49.74;100437.47;7751313;32;37926;-85
2022/11/30 05:58:10;;;;;;;12.82;6.90;;;;;;;5.89;50.16;100436.50;7764639;32;36808;-85
2022/11/30 06:02:26;;;;;;;11.45;6.10;;;;;;;5.79;50.27;100436.19;7765247;32;39259;-86
2022/11/30 06:06:43;;;;;;;14.00;6.40;;;;;;;5.92;49.93;100433.34;7764711;32;40786;-85
2022/11/30 06:11:00;;;;;;;11.70;5.45;;;;;;;5.93;49.58;100432.28;7743854;32;38651;-85
2022/11/30 06:15:17;;;;;;;9.68;5.85;;;;;;;5.93;49.26;100432.28;7764961;32;37815;-85
2022/11/30 06:19:33;;;;;;;10.25;5.65;;;;;;;6.28;48.22;100436.28;7764551;32;40142;-85
2022/11/30 06:23:49;;;;;;;11.57;5.30;;;;;;;6.08;48.12;100450.87;7764502;32;40521;-85
2022/11/30 06:28:09;;;;;;;9.98;5.78;;;;;;;5.82;49.76;100443.84;7764280;32;38640;-86
2022/11/30 06:32:25;;;;;;;8.30;5.43;;;;;;;5.81;49.60;100455.72;7764784;32;35616;-86
2022/11/30 06:36:41;;;;;;;11.43;5.07;;;;;;;6.09;48.50;100441.72;7764582;32;39542;-85
2022/11/30 06:41:08;;;;;;;9.23;5.20;;;;;;;6.27;47.57;100438.16;7764383;32;40768;-86
2022/11/30 06:45:24;;;;;;;9.00;5.07;;;;;;;6.22;47.12;100432.59;7764673;32;37592;-85
2022/11/30 06:49:41;;;;;;;11.82;6.45;;;;;;;6.00;47.79;100448.47;7764364;32;37119;-86
2022/11/30 06:53:57;;;;;;;8.57;5.62;;;;;;;6.48;46.98;100453.09;7764528;32;40102;-83
2022/11/30 06:58:13;;;;;;;9.70;5.80;;;;;;;6.22;48.48;100451.56;7763469;32;40835;-82
2022/11/30 07:02:29;;;;;;;12.30;5.25;;;;;;;6.33;47.56;100445.38;7763283;32;38598;-81
2022/11/30 07:06:46;;;;;;;9.57;5.50;;;;;;;6.48;46.19;100458.50;7764407;32;37247;-82
2022/11/30 07:11:02;;;;;;;11.05;5.70;;;;;;;6.47;46.00;100458.75;7764399;32;39340;-83
2022/11/30 07:15:18;;;;;;;8.90;5.18;;;;;;;6.53;46.08;100466.78;7764724;32;40628;-82
2022/11/30 07:19:34;;;;;;;11.90;6.43;;;;;;;6.86;45.65;100465.50;7764559;32;37525;-82
2022/11/30 07:28:25;;;;;;;11.68;6.10;;;;;;;6.68;48.12;100458.25;7763562;32;39327;-83
2022/11/30 07:32:41;;;;;;;11.82;6.20;;;;;;;6.65;47.48;100463.31;7761784;32;39880;-81
2022/11/30 07:36:58;;;;;;;9.52;5.37;;;;;;;6.90;46.58;100461.28;7763016;32;38037;-83
2022/11/30 07:41:14;;;;;;;12.65;6.35;;;;;;;6.80;47.04;100471.84;7764163;32;37107;-83
2022/11/30 07:45:30;;;;;;;12.13;6.18;;;;;;;7.04;45.93;100471.94;7750338;32;39730;-82
2022/11/30 07:49:47;;;;;;;14.82;7.35;;;;;;;7.05;46.53;100468.97;7763913;32;40841;-81
2022/11/30 07:54:03;;;;;;;10.05;5.85;;;;;;;6.95;47.85;100466.84;7763241;32;38722;-81
2022/11/30 07:58:19;;;;;;;9.52;5.43;;;;;;;6.65;49.16;100469.53;7763340;32;37026;-81
2022/11/30 08:02:36;;;;;;;9.88;5.37;;;;;;;6.70;48.37;100461.56;7763741;32;39347;-78
2022/11/30 08:06:54;;;;;;;9.80;4.87;;;;;;;7.06;47.99;100457.06;7762770;32;39675;-83
2022/11/30 08:11:14;;;;;;;13.35;5.07;;;;;;;7.22;47.04;100458.28;7763080;32;39121;-84
2022/11/30 08:15:30;;;;;;;8.43;4.80;;;;;;;7.21;47.36;100470.22;7763188;32;37886;-82
2022/11/30 08:19:48;;;;;;;9.82;5.22;;;;;;;7.75;45.28;100462.00;7763575;32;38029;-83
2022/11/30 08:24:04;;;;;;;10.50;5.30;;;;;;;7.82;44.48;100465.41;7762720;32;39667;-83
2022/11/30 08:28:21;;;;;;;9.73;5.78;;;;;;;7.88;43.82;100460.91;7762410;32;38520;-83
2022/11/30 08:32:37;;;;;;;11.43;6.20;;;;;;;7.90;45.50;100470.47;7762807;32;37159;-84
2022/11/30 08:36:53;;;;;;;12.07;6.10;;;;;;;7.77;46.64;100468.00;7762585;32;40055;-85
2022/11/30 08:41:11;;;;;;;11.68;5.95;;;;;;;7.72;47.05;100474.13;7762422;32;39915;-84
2022/11/30 08:45:27;;;;;;;11.65;5.85;;;;;;;8.00;46.01;100475.31;7764654;32;38575;-84
2022/11/30 08:49:43;;;;;;;13.07;5.72;;;;;;;8.04;46.21;100470.22;7766399;32;37098;-84
2022/11/30 08:54:00;;;;;;;9.52;4.97;;;;;;;8.01;45.47;100471.53;7766387;32;40209;-83
2022/11/30 08:58:16;;;;;;;6.72;4.30;;;;;;;7.88;44.24;100466.34;7766312;32;40074;-84
2022/11/30 09:02:32;;;;;;;7.32;4.28;;;;;;;8.31;43.23;100465.06;7766322;32;39161;-83
2022/11/30 09:06:49;;;;;;;11.73;4.12;;;;;;;8.31;43.98;100458.81;7766343;32;37914;-71
2022/11/30 09:11:17;;;;;;;7.97;4.40;;;;;;;7.86;48.87;100458.44;7766263;32;39431;-83
2022/11/30 09:15:33;;;;;;;10.43;4.62;;;;;;;8.70;47.28;100454.47;7766177;32;39920;-83
2022/11/30 09:19:50;;;;;;;8.07;4.15;;;;;;;8.82;42.43;100448.97;7766102;32;38746;-84
2022/11/30 09:24:06;;;;;;;8.63;4.35;;;;;;;8.81;42.18;100441.88;7766170;32;37014;-83
2022/11/30 09:28:23;;;;;;;6.05;3.83;;;;;;;8.83;40.80;100437.88;7766114;32;39189;-83
2022/11/30 09:32:39;;;;;;;6.43;3.12;;;;;;;8.83;41.99;100437.06;7766271;32;40911;-83
2022/11/30 09:36:55;;;;;;;7.07;3.53;;;;;;;8.62;41.67;100433.09;7765861;32;38694;-83
2022/11/30 09:41:33;;;;;;;6.97;3.67;;;;;;;9.00;39.23;100440.63;7765560;32;37023;-83
2022/11/30 09:45:55;;;;;;;7.53;3.60;;;;;;;8.77;39.97;100435.28;7761166;32;40157;-83
2022/11/30 09:50:17;;;;;;;8.75;4.00;;;;;;;8.86;41.30;100435.72;7751770;32;39522;-83
2022/11/30 09:54:39;;;;;;;8.50;4.43;;;;;;;9.11;39.84;100430.72;7778423;32;37962;-84
2022/11/30 09:59:14;;;;;;;8.90;5.05;;;;;;;8.79;40.71;100433.16;7773973;32;36854;-83
2022/11/30 10:03:30;;;;;;;9.05;4.93;;;;;;;9.01;41.97;100430.56;7765106;32;38914;-82
2022/11/30 10:08:31;;;;;;;7.90;4.47;;;;;;;8.90;43.04;100435.00;7764486;32;40094;-84
2022/11/30 10:13:12;;;;;;;8.55;4.62;;;;;;;8.71;44.12;100437.09;7764756;32;37976;-83
2022/11/30 10:17:46;;;;;;;12.15;4.95;;;;;;;8.57;44.19;100425.69;7764428;32;36744;-84
2022/11/30 10:22:12;;;;;;;10.15;5.15;;;;;;;8.48;42.82;100432.56;7751791;32;39071;-84
2022/11/30 10:26:37;;;;;;;12.60;5.60;;;;;;;8.78;42.22;100437.78;7751028;32;40699;-84
2022/11/30 10:30:53;;;;;;;12.40;5.53;;;;;;;8.24;43.68;100435.34;7764443;32;38334;-83
2022/11/30 10:35:38;;;;;;;9.88;4.90;;;;;;;8.07;44.03;100437.16;7764937;32;37110;-83
2022/11/30 10:40:04;;;;;;;8.88;4.90;;;;;;;8.44;42.86;100436.84;7760332;32;39375;-80
2022/11/30 10:44:30;;;;;;;8.23;4.55;;;;;;;8.10;43.90;100439.38;7763582;32;39112;-83
2022/11/30 10:49:00;;;;;;;8.82;4.45;;;;;;;8.46;43.25;100435.53;7742727;32;37829;-83
2022/11/30 10:53:16;;;;;;;15.18;4.35;;;;;;;8.93;41.98;100420.88;7750877;32;37170;-83
2022/11/30 10:57:32;;;;;;;9.60;3.65;;;;;;;8.68;41.92;100425.91;7764260;32;40605;-83
2022/11/30 11:01:49;;;;;;;4.25;2.75;;;;;;;8.95;42.28;100421.50;7763783;32;39847;-82
2022/11/30 11:06:14;;;;;;;4.30;2.97;;;;;;;8.95;41.03;100410.63;7763751;32;38829;-84
2022/11/30 11:10:35;;;;;;;4.37;2.85;;;;;;;9.54;39.30;100406.63;7749921;32;37344;-83
2022/11/30 11:15:22;;;;;;;7.13;3.03;;;;;;;9.61;39.13;100407.28;7763701;32;39349;-83
2022/11/30 11:19:40;;;;;;;6.72;3.30;;;;;;;9.92;37.27;100397.63;7763514;32;40816;-83
2022/11/30 11:23:57;;;;;;;7.32;3.22;;;;;;;9.71;37.96;100396.53;7764290;32;37958;-82
2022/11/30 11:28:17;;;;;;;4.18;2.75;;;;;;;9.86;38.07;100393.19;7763405;32;37806;-84
2022/11/30 11:32:34;;;;;;;5.12;3.08;;;;;;;9.93;38.27;100379.37;7749549;32;40074;-84
2022/11/30 11:37:15;;;;;;;4.62;2.95;;;;;;;10.27;38.26;100384.69;7762219;32;39870;-84
2022/11/30 11:41:36;;;;;;;4.80;3.10;;;;;;;9.96;37.80;100381.59;7763612;32;38150;-82
2022/11/30 11:45:55;;;;;;;5.32;2.72;;;;;;;9.93;38.07;100379.37;7764012;32;37477;-83
2022/11/30 11:50:11;;;;;;;5.95;2.80;;;;;;;9.96;37.97;100378.88;7747351;32;40131;-84
2022/11/30 11:54:45;;;;;;;5.50;3.28;;;;;;;10.28;36.62;100380.91;7763119;32;39976;-85
2022/11/30 11:59:18;;;;;;;7.78;3.60;;;;;;;10.02;37.72;100380.59;7763556;32;37871;-85
2022/11/30 12:03:43;;;;;;;8.70;3.78;;;;;;;10.16;38.25;100370.16;7736820;32;37092;-84
2022/11/30 12:08:11;;;;;;;5.78;3.25;;;;;;;10.59;37.45;100363.00;7735632;32;38578;-84
2022/11/30 12:12:28;;;;;;;6.47;3.70;;;;;;;10.62;36.94;100364.38;7735867;32;40156;-85
2022/11/30 12:17:19;;;;;;;5.65;3.42;;;;;;;10.45;37.99;100378.94;7735633;32;38656;-85
2022/11/30 12:21:39;;;;;;;8.82;4.00;;;;;;;10.43;36.77;100375.63;7739395;32;37900;-85
2022/11/30 12:26:06;;;;;;;6.90;3.30;;;;;;;10.50;37.27;100381.72;7739903;32;39410;-85
2022/11/30 12:30:30;;;;;;;6.75;3.60;;;;;;;10.35;38.54;100384.28;7740014;32;40037;-84
2022/11/30 12:35:02;;;;;;;6.60;3.62;;;;;;;10.42;37.45;100381.38;7739726;32;38719;-84
2022/11/30 12:39:41;;;;;;;7.15;3.75;;;;;;;10.79;38.11;100381.44;7739513;32;37224;-85
2022/11/30 12:43:58;;;;;;;7.60;4.32;;;;;;;10.75;36.89;100385.78;7725992;32;40253;-85
2022/11/30 12:48:42;;;;;;;8.38;3.83;;;;;;;10.35;37.99;100389.72;7739610;32;40474;-85
2022/11/30 12:53:10;;;;;;;7.57;4.55;;;;;;;10.72;37.12;100386.28;7739502;32;38218;-85
2022/11/30 12:57:47;;;;;;;18.25;9.60;;;;;;;10.61;37.08;100392.72;7739688;32;36769;-85
2022/11/30 13:02:28;;;;;;;12.25;5.45;;;;;;;10.60;37.45;100382.91;7739583;32;39166;-85
2022/11/30 13:06:49;;;;;;;8.25;5.28;;;;;;;10.44;38.39;100376.47;7739325;32;40575;-85
2022/11/30 13:11:31;;;;;;;12.52;5.43;;;;;;;10.30;39.26;100359.66;7726063;32;38044;-85
2022/11/30 13:15:48;;;;;;;7.55;4.68;;;;;;;10.46;38.01;100357.94;7720210;32;36951;-85
2022/11/30 13:20:07;;;;;;;8.32;4.62;;;;;;;10.48;38.56;100364.78;7725631;32;39160;-85
2022/11/30 13:24:38;;;;;;;9.00;4.93;;;;;;;10.24;39.38;100357.94;7725342;32;39892;-85
2022/11/30 13:29:23;;;;;;;11.40;4.28;;;;;;;10.13;39.68;100359.75;7726630;32;37636;-85
2022/11/30 13:33:54;;;;;;;8.05;4.45;;;;;;;10.21;38.64;100355.72;7739173;32;37933;-85
2022/11/30 13:38:17;;;;;;;8.45;4.68;;;;;;;10.02;39.58;100364.25;7739060;32;39870;-85
2022/11/30 13:42:55;;;;;;;7.22;4.22;;;;;;;10.40;38.80;100358.97;7726951;32;40201;-85
2022/11/30 13:47:28;;;;;;;7.20;4.43;;;;;;;10.01;39.30;100357.16;7738957;32;36991;-85
2022/11/30 13:51:46;;;;;;;11.55;4.78;;;;;;;9.59;40.38;100363.16;7738780;32;37096;-85
2022/11/30 13:56:33;;;;;;;7.60;4.22;;;;;;;9.89;40.08;100370.06;7738538;32;40341;-84
2022/11/30 14:01:21;;;;;;;7.70;4.35;;;;;;;9.87;40.26;100369.50;7738848;32;40555;-84
2022/11/30 14:05:45;;;;;;;11.23;4.30;;;;;;;9.80;40.71;100360.72;7738660;32;37824;-84
2022/11/30 14:10:02;;;;;;;9.15;4.25;;;;;;;9.72;40.88;100360.06;7738566;32;37957;-85
2022/11/30 14:14:44;;;;;;;6.90;4.22;;;;;;;9.63;40.95;100360.75;7738600;32;39986;-85
2022/11/30 14:19:04;;;;;;;11.10;4.57;;;;;;;9.36;41.77;100356.81;7738580;32;39896;-85
2022/11/30 14:23:39;;;;;;;10.23;4.55;;;;;;;9.52;41.16;100354.31;7725049;32;37610;-85
2022/11/30 14:27:56;;;;;;;10.55;4.43;;;;;;;9.57;41.02;100351.69;7738437;32;37938;-84
2022/11/30 14:32:18;;;;;;;7.72;4.30;;;;;;;9.37;41.36;100361.22;7738344;32;39150;-84
2022/11/30 14:36:51;;;;;;;6.43;3.85;;;;;;;9.50;42.20;100356.47;7724844;32;39934;-84
2022/11/30 14:41:25;;;;;;;15.57;4.57;;;;;;;9.57;42.76;100357.97;7729742;32;251347;-84
2022/11/30 14:45:42;;;;;;;7.28;4.57;;;;;;;9.49;41.35;100361.12;7725101;32;37264;-85
2022/11/30 14:50:04;;;;;;;9.85;5.03;;;;;;;9.63;41.78;100355.31;7738181;32;40188;-84
2022/11/30 14:54:43;;;;;;;9.00;4.60;;;;;;;9.21;42.74;100360.16;7724420;32;39755;-84
2022/11/30 14:59:17;;;;;;;8.38;4.75;;;;;;;9.62;43.29;100354.47;7738049;32;38075;-84
2022/11/30 15:03:34;;;;;;;11.73;4.65;;;;;;;9.01;45.46;100360.66;7738129;32;37092;-84
2022/11/30 15:07:55;;;;;;;7.82;4.55;;;;;;;9.09;46.17;100358.59;7738064;32;40062;-84
2022/11/30 15:12:18;;;;;;;10.68;5.10;;;;;;;8.87;47.18;100359.34;7737792;32;40809;-84
2022/11/30 15:16:34;;;;;;;9.57;5.70;;;;;;;9.20;45.52;100366.66;7738200;32;36269;-84
2022/11/30 15:20:56;;;;;;;10.02;5.22;;;;;;;9.19;46.45;100356.03;7724059;32;37122;-84
2022/11/30 15:25:12;;;;;;;10.45;4.90;;;;;;;8.87;47.07;100359.34;7724724;32;37667;-84
2022/11/30 15:29:33;;;;;;;9.60;5.10;;;;;;;8.73;47.88;100368.91;7737587;32;40826;-83
2022/11/30 15:33:50;;;;;;;11.27;5.28;;;;;;;9.31;44.62;100354.06;7737479;32;37918;-84
2022/11/30 15:38:08;;;;;;;9.90;4.57;;;;;;;8.90;45.55;100358.00;7737388;32;36810;-84
2022/11/30 15:42:39;;;;;;;6.65;4.25;;;;;;;8.90;45.54;100358.84;7723586;32;40257;-84
2022/11/30 15:46:58;;;;;;;11.93;5.78;;;;;;;8.88;43.60;100355.53;7723967;32;41499;-84
2022/11/30 15:51:22;;;;;;;13.80;4.80;;;;;;;9.03;42.12;100372.09;7737115;32;37933;-84
2022/11/30 15:55:46;;;;;;;8.38;4.20;;;;;;;8.51;46.47;100371.50;7722991;32;37166;-84
2022/11/30 16:00:07;;;;;;;13.65;5.35;;;;;;;8.28;47.08;100370.50;7736599;32;39385;-83
2022/11/30 16:04:24;;;;;;;11.80;6.47;;;;;;;8.35;46.95;100363.03;7739700;32;40543;-84
2022/11/30 16:08:46;;;;;;;11.77;6.40;;;;;;;8.33;46.72;100367.88;7763585;32;37568;-84
2022/11/30 16:13:03;;;;;;;16.42;6.10;;;;;;;8.33;46.79;100364.31;7763566;32;37064;-84
2022/11/30 16:17:19;;;;;;;14.13;6.10;;;;;;;8.31;46.25;100363.75;7748756;32;39922;-83
2022/11/30 16:21:35;;;;;;;10.25;5.20;;;;;;;8.28;46.60;100363.16;7749092;32;40657;-85
2022/11/30 16:25:52;;;;;;;8.80;4.65;;;;;;;8.12;47.55;100358.50;7763041;32;37971;-83
2022/11/30 16:30:12;;;;;;;8.07;4.78;;;;;;;8.43;46.14;100356.38;7763064;32;36751;-83
2022/11/30 16:34:28;;;;;;;9.50;5.12;;;;;;;8.28;45.92;100362.34;7749515;32;39869;-83
2022/11/30 16:38:51;;;;;;;12.15;5.45;;;;;;;8.25;46.63;100352.78;7761506;32;40024;-84
2022/11/30 16:43:10;;;;;;;11.60;5.93;;;;;;;8.07;46.50;100351.09;7787048;32;37956;-84
2022/11/30 16:47:27;;;;;;;10.90;5.75;;;;;;;8.27;45.16;100344.41;7789824;32;37223;-84
2022/11/30 16:51:43;;;;;;;11.93;5.87;;;;;;;8.17;45.97;100349.63;7789650;32;40134;-84
2022/11/30 16:55:59;;;;;;;12.02;5.50;;;;;;;8.31;44.74;100355.59;7789509;32;40726;-82
2022/11/30 17:00:19;;;;;;;9.27;5.00;;;;;;;7.76;45.36;100360.50;7789454;32;37946;-84
2022/11/30 17:04:36;;;;;;;10.38;5.20;;;;;;;8.02;45.47;100356.41;7757060;32;37779;-85
2022/11/30 17:08:53;;;;;;;8.45;5.30;;;;;;;8.12;44.94;100354.97;7745538;32;39337;-84
2022/11/30 17:13:16;;;;;;;14.48;5.05;;;;;;;8.41;43.79;100363.94;7764453;32;39863;-84
2022/11/30 17:17:33;;;;;;;8.73;5.07;;;;;;;8.51;43.68;100357.91;7761156;32;37945;-85
2022/11/30 17:21:51;;;;;;;11.38;5.70;;;;;;;8.22;45.14;100360.59;7739035;32;36995;-85
2022/11/30 17:26:08;;;;;;;12.88;7.03;;;;;;;8.35;44.51;100368.47;7738869;32;37812;-86
2022/11/30 17:30:24;;;;;;;13.77;6.80;;;;;;;8.41;44.41;100364.75;7738652;32;40915;-85
2022/11/30 17:34:40;;;;;;;13.32;6.85;;;;;;;7.82;46.69;100375.00;7738722;32;38694;-85
2022/11/30 17:38:56;;;;;;;11.55;6.93;;;;;;;8.14;45.70;100359.09;7761914;32;36703;-86
2022/11/30 17:43:13;;;;;;;13.30;7.20;;;;;;;8.45;45.45;100362.41;7765749;32;40109;-86
2022/11/30 17:47:29;;;;;;;12.30;6.90;;;;;;;8.32;45.58;100368.12;7765445;32;40455;-85
2022/11/30 17:51:46;;;;;;;13.70;6.95;;;;;;;8.37;45.33;100362.78;7765301;32;38755;-86
2022/11/30 17:56:14;;;;;;;15.00;6.28;;;;;;;8.47;44.53;100368.44;7764983;32;37637;-85
2022/11/30 18:00:30;;;;;;;12.52;6.55;;;;;;;8.43;44.82;100381.69;7764867;32;39532;-86
2022/11/30 18:04:46;;;;;;;12.70;6.70;;;;;;;8.37;44.85;100387.25;7764184;32;39820;-84
2022/11/30 18:09:03;;;;;;;14.52;7.37;;;;;;;8.33;45.37;100384.19;7764407;32;38745;-86
2022/11/30 18:13:19;;;;;;;14.65;7.70;;;;;;;8.18;46.33;100384.69;7762571;32;37863;-85
2022/11/30 18:17:35;;;;;;;14.32;7.72;;;;;;;7.86;48.32;100392.44;7763500;32;40063;-84
2022/11/30 18:21:51;;;;;;;14.18;6.90;;;;;;;7.62;49.05;100397.09;7764249;32;39875;-84
2022/11/30 18:26:13;;;;;;;13.73;6.87;;;;;;;7.93;48.69;100395.03;7764253;32;37960;-84
2022/11/30 18:30:29;;;;;;;12.27;6.40;;;;;;;8.06;48.62;100394.78;7750923;32;37249;-84
2022/11/30 18:34:48;;;;;;;14.63;7.37;;;;;;;7.90;49.41;100391.75;7763883;32;39377;-85
2022/11/30 18:39:05;;;;;;;12.77;6.22;;;;;;;7.81;50.06;100398.62;7763428;32;40865;-84
2022/11/30 18:43:21;;;;;;;13.75;5.87;;;;;;;7.46;50.74;100399.44;7764064;32;37923;-85
2022/11/30 18:47:37;;;;;;;12.68;5.95;;;;;;;7.47;49.38;100395.69;7763634;32;37139;-86
2022/11/30 18:51:53;;;;;;;12.40;6.03;;;;;;;7.51;49.56;100396.03;7763613;32;39348;-85
2022/11/30 18:56:11;;;;;;;11.27;5.43;;;;;;;7.51;48.60;100396.84;7764731;32;40806;-84
2022/11/30 19:00:28;;;;;;;13.80;6.10;;;;;;;7.55;49.05;100396.37;7764820;32;37031;-82
2022/11/30 19:04:44;;;;;;;11.63;6.12;;;;;;;7.65;48.89;100402.03;7764811;32;36779;-89
2022/11/30 19:09:04;;;;;;;13.93;6.53;;;;;;;7.31;50.63;100404.50;7764511;32;40300;-86
2022/11/30 19:13:20;;;;;;;16.65;7.57;;;;;;;7.22;50.59;100405.94;7764437;32;41068;-86
2022/11/30 19:17:36;;;;;;;15.90;7.50;;;;;;;7.37;50.06;100400.88;7764706;32;38390;-85
2022/11/30 19:21:53;;;;;;;14.60;6.80;;;;;;;7.28;49.61;100407.72;7764460;32;36949;-83
2022/11/30 19:26:09;;;;;;;14.45;6.97;;;;;;;7.04;50.29;100412.28;7764529;32;39344;-84
2022/11/30 19:30:25;;;;;;;12.55;7.28;;;;;;;7.43;49.32;100404.53;7764222;32;40769;-86
2022/11/30 19:34:42;;;;;;;14.23;7.93;;;;;;;7.45;49.98;100403.25;7763991;32;38019;-84
2022/11/30 19:38:59;;;;;;;12.68;6.90;;;;;;;7.62;49.46;100402.50;7763069;32;37359;-80
2022/11/30 19:43:15;;;;;;;15.63;7.12;;;;;;;7.20;49.87;100405.34;7763423;32;39251;-83
2022/11/30 19:47:31;;;;;;;12.63;6.40;;;;;;;6.86;50.34;100415.88;7764226;32;40868;-83
2022/11/30 19:51:47;;;;;;;13.55;6.20;;;;;;;6.87;50.17;100414.84;7763748;32;37856;-84
2022/11/30 19:56:05;;;;;;;16.02;7.35;;;;;;;7.08;49.02;100422.41;7762566;32;37339;-85
2022/11/30 20:00:22;;;;;;;21.23;11.60;;;;;;;6.99;49.03;100415.69;7762204;32;39356;-85
2022/11/30 20:04:38;;;;;;;20.75;10.23;;;;;;;7.14;49.51;100410.66;7762476;32;40611;-84
2022/11/30 20:08:56;;;;;;;18.58;11.18;;;;;;;7.27;49.30;100398.75;7762403;32;38806;-85
2022/11/30 20:13:13;;;;;;;17.62;10.23;;;;;;;6.81;51.06;100410.34;7760598;32;36216;-83
2022/11/30 20:17:29;;;;;;;18.00;9.75;;;;;;;6.82;51.33;100401.97;7762102;32;40016;-82
2022/11/30 20:21:47;;;;;;;19.27;9.93;;;;;;;6.75;51.85;100409.38;7759902;32;39853;-85